Airfield :
LOGIN :

Register | Disclaimer

   EN    FR    IT 

 










Legend :    VFR   Marginal VFR   IFR   Intensive IFR   Very Intensive IFR
Visi :
Ceiling :
>= 8 km
>= 3000ft
5 to 8 km
1000 to 3000 ft
1500m to 5 km
500 to 1000 ft
800 to 1500m
200 to 500 ft
< 800m
< 200 ft
Symbols :   Thunderstorms  Fog  Heavy snow  Heavy precipitations  Wind > 20 kt
SIGMETs :     Misc.  Thunderstorms  Icing  Turbulence  Mountain Waves  Volcanic Ashes







- Airport Elevation : 46 ft
- IATA code : SNN


EINN - Shannon

CURRENT METAR :
  • 200330Z 23015KT 4000 -RADZ FEW004 BKN007 13/12 Q1012 TEMPO 8000 BKN012

EXPIRED METARs :
  • 200300Z 23013KT 3000 -RADZ FEW005 BKN007 13/12 Q1012 TEMPO 8000 BKN012
  • 200230Z 23013KT 3000 -RADZ SCT006 BKN008 13/12 Q1013 TEMPO 8000 BKN012
  • 200200Z 23013KT 3000 -RADZ BKN006 BKN010 13/12 Q1013 TEMPO 8000 BKN012
  • 200130Z 23014KT 3000 -RADZ BKN010 13/12 Q1013 TEMPO 8000
  • 200100Z 22010KT 9999 -RADZ BKN011 13/12 Q1013 NOSIG

TAF AMD TAF EINN
Valid from the 20 at 02:00 until the 21 at 00:00 UTC


200202Z 2002/2024 22012KT 9999 SCT005 BKN015
TEMPO 2002/2004 23016G26KT
TEMPO 2002/2009 3000 -RADZ BKN006
BECMG 2009/2012 25012KT BKN012
TEMPO 2009/2021 2000 -RADZ BKN004
PROB40
TEMPO 2010/2019 0300 RADZ FG BKN001
BECMG 2021/2024 19008KT BKN018
No reported NOTAMs for that airfield.



MET'MAP, your aeronautical weather chart ! - Copyright ORBIFLY December 2007 - Disclaimer

ORBIFLY MET'MAP TEAM :

Programming & Development : Alexandra Zaïnal
Concept & Development : Baudouin d'Aumeries
Co-Development & Prog : Marc-Olivier Méhu
Technical & hardware support : Manuel Goepfert

Contact : metmap@orbifly.com




SOURCES & CREDITS :

   NOAA